sensor_id;sensor_type;location;lat;lon;timestamp;temperature;humidity
40636;DHT22;26642;55.766;37.828;2024-02-26T00:01:42;9.00;70.50
40636;DHT22;26642;55.766;37.828;2024-02-26T00:04:11;9.00;70.70
40636;DHT22;26642;55.766;37.828;2024-02-26T00:06:38;9.00;70.50
40636;DHT22;26642;55.766;37.828;2024-02-26T00:09:07;9.00;70.50
40636;DHT22;26642;55.766;37.828;2024-02-26T00:11:35;9.00;71.40
40636;DHT22;26642;55.766;37.828;2024-02-26T00:14:01;9.00;70.80
40636;DHT22;26642;55.766;37.828;2024-02-26T00:16:27;9.00;70.50
40636;DHT22;26642;55.766;37.828;2024-02-26T00:18:53;9.00;70.50
40636;DHT22;26642;55.766;37.828;2024-02-26T00:21:19;9.00;70.20
40636;DHT22;26642;55.766;37.828;2024-02-26T00:23:45;9.00;70.70
40636;DHT22;26642;55.766;37.828;2024-02-26T00:26:11;9.00;70.50
40636;DHT22;26642;55.766;37.828;2024-02-26T00:28:37;9.00;70.00
40636;DHT22;26642;55.766;37.828;2024-02-26T00:31:03;9.00;70.10
40636;DHT22;26642;55.766;37.828;2024-02-26T00:33:29;9.00;70.00
40636;DHT22;26642;55.766;37.828;2024-02-26T00:35:55;8.90;70.10
40636;DHT22;26642;55.766;37.828;2024-02-26T00:38:21;9.00;69.90
40636;DHT22;26642;55.766;37.828;2024-02-26T00:40:47;9.00;70.10
40636;DHT22;26642;55.766;37.828;2024-02-26T00:43:13;8.90;70.00
40636;DHT22;26642;55.766;37.828;2024-02-26T00:45:39;8.90;70.40
40636;DHT22;26642;55.766;37.828;2024-02-26T00:48:05;8.90;69.80
40636;DHT22;26642;55.766;37.828;2024-02-26T00:50:33;8.90;69.90
40636;DHT22;26642;55.766;37.828;2024-02-26T00:53:00;8.90;70.10
40636;DHT22;26642;55.766;37.828;2024-02-26T00:55:26;8.90;70.10
40636;DHT22;26642;55.766;37.828;2024-02-26T00:57:52;8.90;69.80
40636;DHT22;26642;55.766;37.828;2024-02-26T01:00:18;8.90;69.50
40636;DHT22;26642;55.766;37.828;2024-02-26T01:02:44;8.90;69.60
40636;DHT22;26642;55.766;37.828;2024-02-26T01:05:14;8.90;69.70
40636;DHT22;26642;55.766;37.828;2024-02-26T01:07:42;8.90;69.60
40636;DHT22;26642;55.766;37.828;2024-02-26T01:10:08;8.90;69.60
40636;DHT22;26642;55.766;37.828;2024-02-26T01:12:34;8.90;69.40
40636;DHT22;26642;55.766;37.828;2024-02-26T01:15:04;8.90;69.20
40636;DHT22;26642;55.766;37.828;2024-02-26T01:17:30;8.80;69.10
40636;DHT22;26642;55.766;37.828;2024-02-26T01:19:56;8.90;69.20
40636;DHT22;26642;55.766;37.828;2024-02-26T01:22:22;8.80;69.10
40636;DHT22;26642;55.766;37.828;2024-02-26T01:24:49;8.80;69.20
40636;DHT22;26642;55.766;37.828;2024-02-26T01:27:15;8.80;69.40
40636;DHT22;26642;55.766;37.828;2024-02-26T01:29:41;8.80;69.40
40636;DHT22;26642;55.766;37.828;2024-02-26T01:32:08;8.80;68.70
40636;DHT22;26642;55.766;37.828;2024-02-26T01:34:34;8.80;68.70
40636;DHT22;26642;55.766;37.828;2024-02-26T01:37:00;8.80;69.10
40636;DHT22;26642;55.766;37.828;2024-02-26T01:39:26;8.80;68.70
40636;DHT22;26642;55.766;37.828;2024-02-26T01:41:54;8.80;68.40
40636;DHT22;26642;55.766;37.828;2024-02-26T01:44:21;8.80;68.60
40636;DHT22;26642;55.766;37.828;2024-02-26T01:46:48;8.80;68.80
40636;DHT22;26642;55.766;37.828;2024-02-26T01:49:15;8.80;68.80
40636;DHT22;26642;55.766;37.828;2024-02-26T01:51:42;8.80;68.80
40636;DHT22;26642;55.766;37.828;2024-02-26T01:54:09;8.80;69.00
40636;DHT22;26642;55.766;37.828;2024-02-26T01:56:36;8.80;69.10
40636;DHT22;26642;55.766;37.828;2024-02-26T01:59:04;8.70;68.70
40636;DHT22;26642;55.766;37.828;2024-02-26T02:01:32;8.80;68.70
40636;DHT22;26642;55.766;37.828;2024-02-26T02:03:59;8.80;69.00
40636;DHT22;26642;55.766;37.828;2024-02-26T02:06:26;8.80;68.80
40636;DHT22;26642;55.766;37.828;2024-02-26T02:08:55;8.70;68.70
40636;DHT22;26642;55.766;37.828;2024-02-26T02:11:22;8.80;68.40
40636;DHT22;26642;55.766;37.828;2024-02-26T02:13:48;8.70;68.30
40636;DHT22;26642;55.766;37.828;2024-02-26T02:16:14;8.70;68.70
40636;DHT22;26642;55.766;37.828;2024-02-26T02:18:40;8.70;68.60
40636;DHT22;26642;55.766;37.828;2024-02-26T02:21:06;8.70;68.50
40636;DHT22;26642;55.766;37.828;2024-02-26T02:23:32;8.70;68.90
40636;DHT22;26642;55.766;37.828;2024-02-26T02:25:59;8.70;69.20
40636;DHT22;26642;55.766;37.828;2024-02-26T02:28:26;8.70;69.10
40636;DHT22;26642;55.766;37.828;2024-02-26T02:30:54;8.70;68.60
40636;DHT22;26642;55.766;37.828;2024-02-26T02:33:21;8.70;68.40
40636;DHT22;26642;55.766;37.828;2024-02-26T02:35:48;8.70;68.30
40636;DHT22;26642;55.766;37.828;2024-02-26T02:38:16;8.70;68.30
40636;DHT22;26642;55.766;37.828;2024-02-26T02:40:42;8.70;68.10
40636;DHT22;26642;55.766;37.828;2024-02-26T02:43:08;8.70;68.30
40636;DHT22;26642;55.766;37.828;2024-02-26T02:45:34;8.70;68.10
40636;DHT22;26642;55.766;37.828;2024-02-26T02:48:00;8.60;68.00
40636;DHT22;26642;55.766;37.828;2024-02-26T02:50:26;8.70;68.40
40636;DHT22;26642;55.766;37.828;2024-02-26T02:52:54;8.70;68.50
40636;DHT22;26642;55.766;37.828;2024-02-26T02:55:20;8.60;68.00
40636;DHT22;26642;55.766;37.828;2024-02-26T02:57:46;8.60;68.00
40636;DHT22;26642;55.766;37.828;2024-02-26T03:00:12;8.60;67.90
40636;DHT22;26642;55.766;37.828;2024-02-26T03:02:38;8.60;67.90
40636;DHT22;26642;55.766;37.828;2024-02-26T03:05:05;8.60;67.70
40636;DHT22;26642;55.766;37.828;2024-02-26T03:07:31;8.60;67.80
40636;DHT22;26642;55.766;37.828;2024-02-26T03:09:57;8.60;68.10
40636;DHT22;26642;55.766;37.828;2024-02-26T03:12:23;8.60;67.80
40636;DHT22;26642;55.766;37.828;2024-02-26T03:14:49;8.60;67.60
40636;DHT22;26642;55.766;37.828;2024-02-26T03:17:16;8.60;67.90
40636;DHT22;26642;55.766;37.828;2024-02-26T03:19:43;8.60;67.70
40636;DHT22;26642;55.766;37.828;2024-02-26T03:22:11;8.60;67.40
40636;DHT22;26642;55.766;37.828;2024-02-26T03:24:37;8.60;67.60
40636;DHT22;26642;55.766;37.828;2024-02-26T03:27:03;8.60;67.70
40636;DHT22;26642;55.766;37.828;2024-02-26T03:29:35;8.60;67.50
40636;DHT22;26642;55.766;37.828;2024-02-26T03:32:01;8.60;67.50
40636;DHT22;26642;55.766;37.828;2024-02-26T03:34:28;8.60;67.30
40636;DHT22;26642;55.766;37.828;2024-02-26T03:36:54;8.50;67.40
40636;DHT22;26642;55.766;37.828;2024-02-26T03:39:20;8.50;67.00
40636;DHT22;26642;55.766;37.828;2024-02-26T03:41:46;8.50;67.00
40636;DHT22;26642;55.766;37.828;2024-02-26T03:44:12;8.50;67.10
40636;DHT22;26642;55.766;37.828;2024-02-26T03:46:38;8.50;66.90
40636;DHT22;26642;55.766;37.828;2024-02-26T03:49:04;8.50;66.70
40636;DHT22;26642;55.766;37.828;2024-02-26T03:51:30;8.50;67.00
40636;DHT22;26642;55.766;37.828;2024-02-26T03:53:58;8.50;66.70
40636;DHT22;26642;55.766;37.828;2024-02-26T03:56:25;8.50;66.90
40636;DHT22;26642;55.766;37.828;2024-02-26T03:58:51;8.50;66.70
40636;DHT22;26642;55.766;37.828;2024-02-26T04:01:17;8.40;66.70
40636;DHT22;26642;55.766;37.828;2024-02-26T04:03:43;8.40;67.00
40636;DHT22;26642;55.766;37.828;2024-02-26T04:06:10;8.40;66.80
40636;DHT22;26642;55.766;37.828;2024-02-26T04:08:43;8.40;66.70
40636;DHT22;26642;55.766;37.828;2024-02-26T04:11:09;8.40;66.70
40636;DHT22;26642;55.766;37.828;2024-02-26T04:13:36;8.40;66.50
40636;DHT22;26642;55.766;37.828;2024-02-26T04:16:06;8.40;66.90
40636;DHT22;26642;55.766;37.828;2024-02-26T04:18:33;8.40;66.70
40636;DHT22;26642;55.766;37.828;2024-02-26T04:20:59;8.40;66.90
40636;DHT22;26642;55.766;37.828;2024-02-26T04:23:25;8.40;67.10
40636;DHT22;26642;55.766;37.828;2024-02-26T04:25:51;8.40;66.70
40636;DHT22;26642;55.766;37.828;2024-02-26T04:28:19;8.40;66.40
40636;DHT22;26642;55.766;37.828;2024-02-26T04:30:47;8.40;66.30
40636;DHT22;26642;55.766;37.828;2024-02-26T04:33:14;8.40;66.60
40636;DHT22;26642;55.766;37.828;2024-02-26T04:35:40;8.30;66.80
40636;DHT22;26642;55.766;37.828;2024-02-26T04:38:05;8.40;66.90
40636;DHT22;26642;55.766;37.828;2024-02-26T04:40:31;8.40;66.60
40636;DHT22;26642;55.766;37.828;2024-02-26T04:42:57;8.40;66.80
40636;DHT22;26642;55.766;37.828;2024-02-26T04:45:23;8.30;66.50
40636;DHT22;26642;55.766;37.828;2024-02-26T04:47:49;8.40;66.80
40636;DHT22;26642;55.766;37.828;2024-02-26T04:50:16;8.40;66.70
40636;DHT22;26642;55.766;37.828;2024-02-26T04:52:42;8.30;66.60
40636;DHT22;26642;55.766;37.828;2024-02-26T04:55:08;8.40;66.80
40636;DHT22;26642;55.766;37.828;2024-02-26T04:57:34;8.30;67.00
40636;DHT22;26642;55.766;37.828;2024-02-26T05:00:00;8.40;67.20
40636;DHT22;26642;55.766;37.828;2024-02-26T05:02:26;8.30;66.80
40636;DHT22;26642;55.766;37.828;2024-02-26T05:04:53;8.30;66.70
40636;DHT22;26642;55.766;37.828;2024-02-26T05:07:19;8.40;66.70
40636;DHT22;26642;55.766;37.828;2024-02-26T05:09:46;8.40;67.30
40636;DHT22;26642;55.766;37.828;2024-02-26T05:12:12;8.30;67.50
40636;DHT22;26642;55.766;37.828;2024-02-26T05:14:38;8.30;67.90
40636;DHT22;26642;55.766;37.828;2024-02-26T05:17:04;8.30;68.10
40636;DHT22;26642;55.766;37.828;2024-02-26T05:19:31;8.40;68.30
40636;DHT22;26642;55.766;37.828;2024-02-26T05:21:58;8.40;68.40
40636;DHT22;26642;55.766;37.828;2024-02-26T05:24:23;8.40;68.60
40636;DHT22;26642;55.766;37.828;2024-02-26T05:26:49;8.30;68.40
40636;DHT22;26642;55.766;37.828;2024-02-26T05:29:15;8.30;68.30
40636;DHT22;26642;55.766;37.828;2024-02-26T05:31:45;8.30;68.30
40636;DHT22;26642;55.766;37.828;2024-02-26T05:34:11;8.40;68.50
40636;DHT22;26642;55.766;37.828;2024-02-26T05:36:37;8.30;68.70
40636;DHT22;26642;55.766;37.828;2024-02-26T05:39:03;8.30;69.20
40636;DHT22;26642;55.766;37.828;2024-02-26T05:41:29;8.30;68.80
40636;DHT22;26642;55.766;37.828;2024-02-26T05:43:55;8.30;68.50
40636;DHT22;26642;55.766;37.828;2024-02-26T05:46:22;8.40;68.40
40636;DHT22;26642;55.766;37.828;2024-02-26T05:48:51;8.40;68.30
40636;DHT22;26642;55.766;37.828;2024-02-26T05:51:18;8.40;68.20
40636;DHT22;26642;55.766;37.828;2024-02-26T05:53:44;8.40;68.20
40636;DHT22;26642;55.766;37.828;2024-02-26T05:56:10;8.40;68.50
40636;DHT22;26642;55.766;37.828;2024-02-26T05:58:36;8.40;68.00
40636;DHT22;26642;55.766;37.828;2024-02-26T06:01:02;8.40;68.10
40636;DHT22;26642;55.766;37.828;2024-02-26T06:03:28;8.40;67.90
40636;DHT22;26642;55.766;37.828;2024-02-26T06:05:55;8.50;67.80
40636;DHT22;26642;55.766;37.828;2024-02-26T06:08:21;8.50;67.60
40636;DHT22;26642;55.766;37.828;2024-02-26T06:10:48;8.50;67.40
40636;DHT22;26642;55.766;37.828;2024-02-26T06:13:13;8.50;67.30
40636;DHT22;26642;55.766;37.828;2024-02-26T06:15:39;8.50;67.30
40636;DHT22;26642;55.766;37.828;2024-02-26T06:18:05;8.50;67.40
40636;DHT22;26642;55.766;37.828;2024-02-26T06:20:31;8.60;67.20
40636;DHT22;26642;55.766;37.828;2024-02-26T06:22:57;8.60;67.00
40636;DHT22;26642;55.766;37.828;2024-02-26T06:25:23;8.60;67.10
40636;DHT22;26642;55.766;37.828;2024-02-26T06:27:51;8.60;66.90
40636;DHT22;26642;55.766;37.828;2024-02-26T06:30:17;8.60;66.80
40636;DHT22;26642;55.766;37.828;2024-02-26T06:32:43;8.60;66.80
40636;DHT22;26642;55.766;37.828;2024-02-26T06:35:09;8.70;66.80
40636;DHT22;26642;55.766;37.828;2024-02-26T06:37:37;8.70;66.60
40636;DHT22;26642;55.766;37.828;2024-02-26T06:40:03;8.70;66.80
40636;DHT22;26642;55.766;37.828;2024-02-26T06:42:32;8.70;66.70
40636;DHT22;26642;55.766;37.828;2024-02-26T06:44:58;8.70;66.80
40636;DHT22;26642;55.766;37.828;2024-02-26T06:47:24;8.70;66.80
40636;DHT22;26642;55.766;37.828;2024-02-26T06:49:51;8.70;66.60
40636;DHT22;26642;55.766;37.828;2024-02-26T06:55:02;8.70;66.80
40636;DHT22;26642;55.766;37.828;2024-02-26T06:57:28;8.70;66.70
40636;DHT22;26642;55.766;37.828;2024-02-26T06:59:54;8.70;66.60
40636;DHT22;26642;55.766;37.828;2024-02-26T07:02:20;8.70;66.60
40636;DHT22;26642;55.766;37.828;2024-02-26T07:04:46;8.70;66.60
40636;DHT22;26642;55.766;37.828;2024-02-26T07:07:12;8.80;66.60
40636;DHT22;26642;55.766;37.828;2024-02-26T07:09:42;8.80;66.50
40636;DHT22;26642;55.766;37.828;2024-02-26T07:12:08;8.80;66.40
40636;DHT22;26642;55.766;37.828;2024-02-26T07:14:34;8.80;66.40
40636;DHT22;26642;55.766;37.828;2024-02-26T07:17:00;8.80;66.30
40636;DHT22;26642;55.766;37.828;2024-02-26T07:19:26;8.90;66.40
40636;DHT22;26642;55.766;37.828;2024-02-26T07:21:52;8.90;66.40
40636;DHT22;26642;55.766;37.828;2024-02-26T07:24:18;8.90;66.20
40636;DHT22;26642;55.766;37.828;2024-02-26T07:26:44;8.90;66.10
40636;DHT22;26642;55.766;37.828;2024-02-26T07:29:11;8.90;65.90
40636;DHT22;26642;55.766;37.828;2024-02-26T07:31:37;9.00;66.00
40636;DHT22;26642;55.766;37.828;2024-02-26T07:34:03;9.00;65.80
40636;DHT22;26642;55.766;37.828;2024-02-26T07:36:29;9.00;65.80
40636;DHT22;26642;55.766;37.828;2024-02-26T07:38:55;9.00;65.80
40636;DHT22;26642;55.766;37.828;2024-02-26T07:41:21;9.10;66.00
40636;DHT22;26642;55.766;37.828;2024-02-26T07:43:47;9.10;65.70
40636;DHT22;26642;55.766;37.828;2024-02-26T07:46:14;9.10;65.70
40636;DHT22;26642;55.766;37.828;2024-02-26T07:48:40;9.20;65.60
40636;DHT22;26642;55.766;37.828;2024-02-26T07:51:07;9.20;65.70
40636;DHT22;26642;55.766;37.828;2024-02-26T07:53:33;9.20;65.60
40636;DHT22;26642;55.766;37.828;2024-02-26T07:55:59;9.30;65.60
40636;DHT22;26642;55.766;37.828;2024-02-26T07:58:25;9.30;65.60
40636;DHT22;26642;55.766;37.828;2024-02-26T08:00:51;9.30;65.50
40636;DHT22;26642;55.766;37.828;2024-02-26T08:03:17;9.40;65.50
40636;DHT22;26642;55.766;37.828;2024-02-26T08:05:43;9.40;65.50
40636;DHT22;26642;55.766;37.828;2024-02-26T08:08:09;9.50;65.50
40636;DHT22;26642;55.766;37.828;2024-02-26T08:10:35;9.50;65.30
40636;DHT22;26642;55.766;37.828;2024-02-26T08:13:01;9.60;65.20
40636;DHT22;26642;55.766;37.828;2024-02-26T08:15:33;9.60;65.00
40636;DHT22;26642;55.766;37.828;2024-02-26T08:18:05;9.60;64.80
40636;DHT22;26642;55.766;37.828;2024-02-26T08:20:31;9.70;64.80
40636;DHT22;26642;55.766;37.828;2024-02-26T08:22:57;9.70;64.60
40636;DHT22;26642;55.766;37.828;2024-02-26T08:25:24;9.70;64.60
40636;DHT22;26642;55.766;37.828;2024-02-26T08:27:51;9.70;64.50
40636;DHT22;26642;55.766;37.828;2024-02-26T08:30:17;9.70;64.40
40636;DHT22;26642;55.766;37.828;2024-02-26T08:32:44;9.70;64.30
40636;DHT22;26642;55.766;37.828;2024-02-26T08:35:10;9.80;64.20
40636;DHT22;26642;55.766;37.828;2024-02-26T08:37:36;9.80;64.60
40636;DHT22;26642;55.766;37.828;2024-02-26T08:40:03;9.80;63.80
40636;DHT22;26642;55.766;37.828;2024-02-26T08:42:30;9.80;63.50
40636;DHT22;26642;55.766;37.828;2024-02-26T08:44:56;9.80;63.80
40636;DHT22;26642;55.766;37.828;2024-02-26T08:47:22;9.80;63.80
40636;DHT22;26642;55.766;37.828;2024-02-26T08:49:48;9.90;63.80
40636;DHT22;26642;55.766;37.828;2024-02-26T08:52:14;9.90;63.70
40636;DHT22;26642;55.766;37.828;2024-02-26T08:54:41;9.90;63.70
40636;DHT22;26642;55.766;37.828;2024-02-26T08:57:07;9.90;63.60
40636;DHT22;26642;55.766;37.828;2024-02-26T08:59:33;9.90;63.40
40636;DHT22;26642;55.766;37.828;2024-02-26T09:01:59;9.90;63.40
40636;DHT22;26642;55.766;37.828;2024-02-26T09:04:25;10.00;63.40
40636;DHT22;26642;55.766;37.828;2024-02-26T09:06:53;10.00;63.50
40636;DHT22;26642;55.766;37.828;2024-02-26T09:09:20;10.00;63.50
40636;DHT22;26642;55.766;37.828;2024-02-26T09:11:48;10.00;63.50
40636;DHT22;26642;55.766;37.828;2024-02-26T09:14:18;10.00;63.60
40636;DHT22;26642;55.766;37.828;2024-02-26T09:16:44;10.00;63.50
40636;DHT22;26642;55.766;37.828;2024-02-26T09:19:10;10.00;63.20
40636;DHT22;26642;55.766;37.828;2024-02-26T09:21:36;10.10;63.30
40636;DHT22;26642;55.766;37.828;2024-02-26T09:24:02;10.10;63.30
40636;DHT22;26642;55.766;37.828;2024-02-26T09:26:28;10.10;63.30
40636;DHT22;26642;55.766;37.828;2024-02-26T09:28:54;10.10;63.30
40636;DHT22;26642;55.766;37.828;2024-02-26T09:31:20;10.10;63.00
40636;DHT22;26642;55.766;37.828;2024-02-26T09:33:46;10.10;63.00
40636;DHT22;26642;55.766;37.828;2024-02-26T09:36:12;10.10;62.90
40636;DHT22;26642;55.766;37.828;2024-02-26T09:38:39;10.10;63.00
40636;DHT22;26642;55.766;37.828;2024-02-26T09:41:05;10.10;62.90
40636;DHT22;26642;55.766;37.828;2024-02-26T09:43:35;10.20;62.80
40636;DHT22;26642;55.766;37.828;2024-02-26T09:46:02;10.10;62.70
40636;DHT22;26642;55.766;37.828;2024-02-26T09:48:29;10.20;62.80
40636;DHT22;26642;55.766;37.828;2024-02-26T09:50:56;10.20;62.60
40636;DHT22;26642;55.766;37.828;2024-02-26T09:53:22;10.20;62.50
40636;DHT22;26642;55.766;37.828;2024-02-26T09:55:48;10.20;62.50
40636;DHT22;26642;55.766;37.828;2024-02-26T09:58:15;10.20;62.60
40636;DHT22;26642;55.766;37.828;2024-02-26T10:00:48;10.20;62.60
40636;DHT22;26642;55.766;37.828;2024-02-26T10:03:18;10.20;62.70
40636;DHT22;26642;55.766;37.828;2024-02-26T10:05:48;10.20;62.50
40636;DHT22;26642;55.766;37.828;2024-02-26T10:08:17;10.20;62.50
40636;DHT22;26642;55.766;37.828;2024-02-26T10:10:44;10.20;62.60
40636;DHT22;26642;55.766;37.828;2024-02-26T10:13:11;10.30;62.50
40636;DHT22;26642;55.766;37.828;2024-02-26T10:15:37;10.30;62.60
40636;DHT22;26642;55.766;37.828;2024-02-26T10:18:04;10.30;62.60
40636;DHT22;26642;55.766;37.828;2024-02-26T10:20:31;10.30;62.50
40636;DHT22;26642;55.766;37.828;2024-02-26T10:22:58;10.30;62.30
40636;DHT22;26642;55.766;37.828;2024-02-26T10:25:24;10.30;62.10
40636;DHT22;26642;55.766;37.828;2024-02-26T10:27:50;10.30;62.00
40636;DHT22;26642;55.766;37.828;2024-02-26T10:30:18;10.30;61.90
40636;DHT22;26642;55.766;37.828;2024-02-26T10:32:45;10.30;61.90
40636;DHT22;26642;55.766;37.828;2024-02-26T10:35:30;10.30;62.10
40636;DHT22;26642;55.766;37.828;2024-02-26T10:37:57;10.30;62.10
40636;DHT22;26642;55.766;37.828;2024-02-26T10:40:23;10.30;62.20
40636;DHT22;26642;55.766;37.828;2024-02-26T10:42:50;10.30;62.00
40636;DHT22;26642;55.766;37.828;2024-02-26T10:45:16;10.30;61.80
40636;DHT22;26642;55.766;37.828;2024-02-26T10:47:42;10.30;61.50
40636;DHT22;26642;55.766;37.828;2024-02-26T10:50:08;10.30;61.60
40636;DHT22;26642;55.766;37.828;2024-02-26T10:52:36;10.30;61.40
40636;DHT22;26642;55.766;37.828;2024-02-26T10:55:06;10.30;61.60
40636;DHT22;26642;55.766;37.828;2024-02-26T10:57:54;10.30;61.70
40636;DHT22;26642;55.766;37.828;2024-02-26T11:00:20;10.30;61.50
40636;DHT22;26642;55.766;37.828;2024-02-26T11:02:47;10.30;61.50
40636;DHT22;26642;55.766;37.828;2024-02-26T11:05:14;10.30;61.40
40636;DHT22;26642;55.766;37.828;2024-02-26T11:07:41;10.30;61.30
40636;DHT22;26642;55.766;37.828;2024-02-26T11:10:09;10.30;61.30
40636;DHT22;26642;55.766;37.828;2024-02-26T11:12:37;10.30;61.20
40636;DHT22;26642;55.766;37.828;2024-02-26T11:15:05;10.30;61.50
40636;DHT22;26642;55.766;37.828;2024-02-26T11:17:32;10.30;61.40
40636;DHT22;26642;55.766;37.828;2024-02-26T11:20:00;10.30;61.60
40636;DHT22;26642;55.766;37.828;2024-02-26T11:22:28;10.30;61.40
40636;DHT22;26642;55.766;37.828;2024-02-26T11:24:55;10.30;61.40
40636;DHT22;26642;55.766;37.828;2024-02-26T11:27:26;10.30;61.30
40636;DHT22;26642;55.766;37.828;2024-02-26T11:29:56;10.30;61.50
40636;DHT22;26642;55.766;37.828;2024-02-26T11:32:29;10.30;61.40
40636;DHT22;26642;55.766;37.828;2024-02-26T11:34:57;10.30;61.20
40636;DHT22;26642;55.766;37.828;2024-02-26T11:37:23;10.30;61.10
40636;DHT22;26642;55.766;37.828;2024-02-26T11:39:51;10.30;61.40
40636;DHT22;26642;55.766;37.828;2024-02-26T11:42:23;10.30;61.20
40636;DHT22;26642;55.766;37.828;2024-02-26T11:44:50;10.30;61.20
40636;DHT22;26642;55.766;37.828;2024-02-26T11:47:22;10.30;61.20
40636;DHT22;26642;55.766;37.828;2024-02-26T11:49:49;10.30;61.40
40636;DHT22;26642;55.766;37.828;2024-02-26T11:52:15;10.30;61.40
40636;DHT22;26642;55.766;37.828;2024-02-26T11:54:48;10.30;61.30
40636;DHT22;26642;55.766;37.828;2024-02-26T11:59:49;10.30;61.20
40636;DHT22;26642;55.766;37.828;2024-02-26T12:05:19;10.30;61.40
40636;DHT22;26642;55.766;37.828;2024-02-26T12:07:52;10.30;62.10
40636;DHT22;26642;55.766;37.828;2024-02-26T12:10:27;10.30;61.60
40636;DHT22;26642;55.766;37.828;2024-02-26T12:13:13;10.30;61.40
40636;DHT22;26642;55.766;37.828;2024-02-26T12:15:44;10.30;61.40
40636;DHT22;26642;55.766;37.828;2024-02-26T12:18:16;10.30;61.10
40636;DHT22;26642;55.766;37.828;2024-02-26T12:20:43;10.30;60.80
40636;DHT22;26642;55.766;37.828;2024-02-26T12:23:16;10.30;60.90
40636;DHT22;26642;55.766;37.828;2024-02-26T12:25:45;10.30;60.90
40636;DHT22;26642;55.766;37.828;2024-02-26T12:28:14;10.30;61.10
40636;DHT22;26642;55.766;37.828;2024-02-26T12:30:40;10.30;61.30
40636;DHT22;26642;55.766;37.828;2024-02-26T12:33:07;10.30;61.30
40636;DHT22;26642;55.766;37.828;2024-02-26T12:35:35;10.30;61.40
40636;DHT22;26642;55.766;37.828;2024-02-26T12:38:01;10.30;61.50
40636;DHT22;26642;55.766;37.828;2024-02-26T12:40:29;10.30;61.50
40636;DHT22;26642;55.766;37.828;2024-02-26T12:42:56;10.30;61.60
40636;DHT22;26642;55.766;37.828;2024-02-26T12:45:25;10.20;61.40
40636;DHT22;26642;55.766;37.828;2024-02-26T12:47:52;10.30;61.30
40636;DHT22;26642;55.766;37.828;2024-02-26T12:50:18;10.30;61.30
40636;DHT22;26642;55.766;37.828;2024-02-26T12:52:46;10.20;61.40
40636;DHT22;26642;55.766;37.828;2024-02-26T12:55:17;10.20;61.60
40636;DHT22;26642;55.766;37.828;2024-02-26T12:57:45;10.20;61.50
40636;DHT22;26642;55.766;37.828;2024-02-26T13:00:23;10.20;61.60
40636;DHT22;26642;55.766;37.828;2024-02-26T13:02:50;10.20;61.30
40636;DHT22;26642;55.766;37.828;2024-02-26T13:05:18;10.20;61.10
40636;DHT22;26642;55.766;37.828;2024-02-26T13:07:46;10.20;61.30
40636;DHT22;26642;55.766;37.828;2024-02-26T13:10:13;10.20;61.30
40636;DHT22;26642;55.766;37.828;2024-02-26T13:12:47;10.20;61.00
40636;DHT22;26642;55.766;37.828;2024-02-26T13:15:18;10.10;60.90
40636;DHT22;26642;55.766;37.828;2024-02-26T13:17:45;10.20;60.80
40636;DHT22;26642;55.766;37.828;2024-02-26T13:20:12;10.10;60.50
40636;DHT22;26642;55.766;37.828;2024-02-26T13:22:39;10.20;60.50
40636;DHT22;26642;55.766;37.828;2024-02-26T13:25:05;10.10;60.20
40636;DHT22;26642;55.766;37.828;2024-02-26T13:27:35;10.10;60.20
40636;DHT22;26642;55.766;37.828;2024-02-26T13:30:04;10.10;60.10
40636;DHT22;26642;55.766;37.828;2024-02-26T13:32:35;10.10;60.10
40636;DHT22;26642;55.766;37.828;2024-02-26T13:35:09;10.10;60.10
40636;DHT22;26642;55.766;37.828;2024-02-26T13:37:36;10.10;60.00
40636;DHT22;26642;55.766;37.828;2024-02-26T13:40:20;10.00;60.20
40636;DHT22;26642;55.766;37.828;2024-02-26T13:42:46;10.00;60.20
40636;DHT22;26642;55.766;37.828;2024-02-26T13:45:14;10.00;60.20
40636;DHT22;26642;55.766;37.828;2024-02-26T13:47:39;10.00;60.20
40636;DHT22;26642;55.766;37.828;2024-02-26T13:50:07;10.00;59.90
40636;DHT22;26642;55.766;37.828;2024-02-26T13:52:33;10.00;59.60
40636;DHT22;26642;55.766;37.828;2024-02-26T13:55:00;10.00;59.40
40636;DHT22;26642;55.766;37.828;2024-02-26T13:57:26;9.90;59.10
40636;DHT22;26642;55.766;37.828;2024-02-26T13:59:52;10.00;59.40
40636;DHT22;26642;55.766;37.828;2024-02-26T14:02:18;9.90;59.10
40636;DHT22;26642;55.766;37.828;2024-02-26T14:04:44;9.90;59.20
40636;DHT22;26642;55.766;37.828;2024-02-26T14:07:12;9.90;59.20
40636;DHT22;26642;55.766;37.828;2024-02-26T14:09:38;9.90;59.20
40636;DHT22;26642;55.766;37.828;2024-02-26T14:12:05;9.90;59.10
40636;DHT22;26642;55.766;37.828;2024-02-26T14:14:31;9.80;58.90
40636;DHT22;26642;55.766;37.828;2024-02-26T14:17:01;9.80;59.20
40636;DHT22;26642;55.766;37.828;2024-02-26T14:19:29;9.80;59.10
40636;DHT22;26642;55.766;37.828;2024-02-26T14:21:55;9.80;59.50
40636;DHT22;26642;55.766;37.828;2024-02-26T14:24:21;9.80;59.40
40636;DHT22;26642;55.766;37.828;2024-02-26T14:26:47;9.80;59.50
40636;DHT22;26642;55.766;37.828;2024-02-26T14:29:13;9.80;60.00
40636;DHT22;26642;55.766;37.828;2024-02-26T14:31:40;9.80;60.50
40636;DHT22;26642;55.766;37.828;2024-02-26T14:34:06;9.80;60.50
40636;DHT22;26642;55.766;37.828;2024-02-26T14:36:32;9.80;60.30
40636;DHT22;26642;55.766;37.828;2024-02-26T14:38:58;9.80;60.00
40636;DHT22;26642;55.766;37.828;2024-02-26T14:41:24;9.70;60.00
40636;DHT22;26642;55.766;37.828;2024-02-26T14:43:50;9.70;59.90
40636;DHT22;26642;55.766;37.828;2024-02-26T14:46:16;9.70;59.70
40636;DHT22;26642;55.766;37.828;2024-02-26T14:48:43;9.70;59.40
40636;DHT22;26642;55.766;37.828;2024-02-26T14:51:09;9.70;59.40
40636;DHT22;26642;55.766;37.828;2024-02-26T14:53:35;9.70;59.20
40636;DHT22;26642;55.766;37.828;2024-02-26T14:56:01;9.60;59.40
40636;DHT22;26642;55.766;37.828;2024-02-26T14:58:27;9.60;59.00
40636;DHT22;26642;55.766;37.828;2024-02-26T15:00:53;9.60;59.00
40636;DHT22;26642;55.766;37.828;2024-02-26T15:03:19;9.60;58.90
40636;DHT22;26642;55.766;37.828;2024-02-26T15:05:45;9.60;58.90
40636;DHT22;26642;55.766;37.828;2024-02-26T15:08:11;9.60;58.80
40636;DHT22;26642;55.766;37.828;2024-02-26T15:10:40;9.60;58.80
40636;DHT22;26642;55.766;37.828;2024-02-26T15:13:13;9.60;59.20
40636;DHT22;26642;55.766;37.828;2024-02-26T15:15:39;9.50;59.70
40636;DHT22;26642;55.766;37.828;2024-02-26T15:18:07;9.50;59.40
40636;DHT22;26642;55.766;37.828;2024-02-26T15:20:34;9.50;59.50
40636;DHT22;26642;55.766;37.828;2024-02-26T15:23:00;9.50;59.30
40636;DHT22;26642;55.766;37.828;2024-02-26T15:25:26;9.40;59.40
40636;DHT22;26642;55.766;37.828;2024-02-26T15:27:52;9.40;59.40
40636;DHT22;26642;55.766;37.828;2024-02-26T15:30:18;9.40;60.00
40636;DHT22;26642;55.766;37.828;2024-02-26T15:32:45;9.40;59.90